createdAt,value
2022-09-15T00:01:43.534Z,98976.22
2022-09-15T00:04:11.552Z,98971.94
2022-09-15T00:06:39.860Z,98974.13
2022-09-15T00:09:08.090Z,98969.09
2022-09-15T00:11:38.277Z,98960.59
2022-09-15T00:14:09.042Z,98964.38
2022-09-15T00:16:37.408Z,98959.47
2022-09-15T00:19:06.467Z,98962.63
2022-09-15T00:21:36.453Z,98953.63
2022-09-15T00:24:04.670Z,98967.31
2022-09-15T00:26:32.869Z,98959.06
2022-09-15T00:29:01.790Z,98948.91
2022-09-15T00:31:32.689Z,98947.00
2022-09-15T00:34:03.837Z,98950.09
2022-09-15T00:36:32.358Z,98951.53
2022-09-15T00:39:00.099Z,98949.00
2022-09-15T00:41:28.175Z,98949.72
2022-09-15T00:43:58.362Z,98950.19
2022-09-15T00:46:28.921Z,98948.91
2022-09-15T00:49:02.202Z,98939.41
2022-09-15T00:51:38.457Z,98949.47
2022-09-15T00:54:12.482Z,98938.38
2022-09-15T02:47:32.122Z,98940.41
2022-09-15T02:50:00.083Z,98946.78
2022-09-15T02:52:27.778Z,98946.50
2022-09-15T02:54:56.090Z,98945.19
2022-09-15T02:57:24.195Z,98952.03
2022-09-15T03:00:09.618Z,98945.84
2022-09-15T03:02:39.079Z,98950.28
2022-09-15T03:05:08.090Z,98959.63
2022-09-15T03:07:36.871Z,98970.44
2022-09-15T03:10:05.157Z,98963.88
2022-09-15T03:12:33.251Z,98963.09
2022-09-15T03:15:01.253Z,98967.81
2022-09-15T03:17:29.078Z,98966.34
2022-09-15T03:19:58.110Z,98974.22
2022-09-15T03:22:25.838Z,98972.22
2022-09-15T03:24:53.609Z,98969.78
2022-09-15T03:27:21.340Z,98966.66
2022-09-15T03:29:49.353Z,98969.13
2022-09-15T03:32:17.291Z,98973.56
2022-09-15T03:34:45.236Z,98980.44
2022-09-15T03:37:14.512Z,98981.59
2022-09-15T03:39:42.341Z,98985.50
2022-09-15T03:42:10.208Z,98993.34
2022-09-15T03:44:38.144Z,98987.97
2022-09-15T03:47:06.512Z,98994.53
2022-09-15T03:49:34.508Z,98999.59
2022-09-15T03:52:03.034Z,98997.66
2022-09-15T03:54:32.426Z,98988.28
2022-09-15T03:57:00.398Z,98997.63
2022-09-15T03:59:28.209Z,99004.00
2022-09-15T04:01:56.325Z,99004.00
2022-09-15T04:04:24.617Z,99012.31
2022-09-15T04:06:55.360Z,99012.38
2022-09-15T04:09:24.002Z,99014.00
2022-09-15T04:11:53.481Z,99011.69
2022-09-15T04:14:21.305Z,99011.00
2022-09-15T04:16:49.098Z,99018.66
2022-09-15T04:19:17.200Z,99015.38
2022-09-15T04:21:45.734Z,99020.13
2022-09-15T04:24:13.877Z,99017.78
2022-09-15T04:26:41.768Z,99020.13
2022-09-15T04:29:15.833Z,99018.53
2022-09-15T04:31:43.629Z,99019.31
2022-09-15T04:34:12.244Z,99022.09
2022-09-15T04:36:40.170Z,99032.22
2022-09-15T04:39:08.573Z,99026.78
2022-09-15T04:41:36.410Z,99029.72
2022-09-15T04:44:04.543Z,99031.34
2022-09-15T04:46:34.298Z,99030.72
2022-09-15T04:49:02.063Z,99047.72
2022-09-15T04:51:30.188Z,99044.34
2022-09-15T04:53:58.915Z,99049.72
2022-09-15T04:56:27.301Z,99049.97
2022-09-15T04:59:02.404Z,99050.53
2022-09-15T05:01:35.550Z,99062.91
2022-09-15T05:04:05.236Z,99060.53
2022-09-15T05:06:34.659Z,99067.31
2022-09-15T05:09:09.745Z,99064.56
2022-09-15T05:11:39.035Z,99066.19
2022-09-15T05:14:08.057Z,99068.06
2022-09-15T05:16:37.369Z,99080.44
2022-09-15T05:19:05.513Z,99092.50
2022-09-15T05:21:33.812Z,99088.06
2022-09-15T05:24:01.856Z,99084.22
2022-09-15T05:26:30.854Z,99082.66
2022-09-15T05:28:59.157Z,99083.28
2022-09-15T05:31:28.972Z,99085.72
2022-09-15T05:33:58.783Z,99084.66
2022-09-15T05:36:26.898Z,99082.78
2022-09-15T05:38:56.752Z,99090.00
2022-09-15T05:41:26.161Z,99086.31
2022-09-15T05:43:56.892Z,99088.97
2022-09-15T05:46:27.083Z,99101.66
2022-09-15T05:48:58.772Z,99099.34
2022-09-15T05:51:26.841Z,99101.78
2022-09-15T05:53:54.465Z,99106.56
2022-09-15T05:56:22.505Z,99103.75
2022-09-15T05:58:50.752Z,99118.03
2022-09-15T06:01:21.328Z,99117.38
2022-09-15T06:03:50.050Z,99121.84
2022-09-15T06:06:19.731Z,99126.97
2022-09-15T06:08:53.038Z,99124.97
2022-09-15T06:11:24.003Z,99126.00
2022-09-15T06:13:52.177Z,99121.72
2022-09-15T06:16:22.438Z,99123.59
2022-09-15T06:18:52.422Z,99133.03
2022-09-15T06:21:23.709Z,99131.38
2022-09-15T06:23:54.634Z,99127.72
2022-09-15T06:26:23.212Z,99137.47
2022-09-15T06:28:52.752Z,99134.66
2022-09-15T06:31:21.058Z,99140.69
2022-09-15T06:33:51.494Z,99143.75
2022-09-15T06:36:22.521Z,99146.97
2022-09-15T06:38:51.724Z,99147.97
2022-09-15T06:41:19.900Z,99150.13
2022-09-15T06:43:49.245Z,99154.94
2022-09-15T06:46:18.767Z,99165.22
2022-09-15T06:48:48.522Z,99155.66
2022-09-15T06:51:18.651Z,99157.63
2022-09-15T06:53:47.929Z,99158.94
2022-09-15T06:56:17.924Z,99160.03
2022-09-15T06:58:48.915Z,99164.38
2022-09-15T07:01:21.661Z,99164.78
2022-09-15T07:03:49.921Z,99161.84
2022-09-15T07:06:18.096Z,99165.13
2022-09-15T07:08:48.299Z,99170.28
2022-09-15T07:11:17.088Z,99172.84
2022-09-15T07:13:44.965Z,99179.66
2022-09-15T07:16:14.026Z,99173.78
2022-09-15T07:18:43.484Z,99187.16
2022-09-15T07:21:14.723Z,99192.53
2022-09-15T07:23:47.123Z,99182.28
2022-09-15T07:26:18.439Z,99195.09
2022-09-15T07:28:49.931Z,99190.97
2022-09-15T07:31:20.145Z,99199.25
2022-09-15T07:33:48.530Z,99196.13
2022-09-15T07:36:17.241Z,99201.25
2022-09-15T07:38:48.193Z,99204.34
2022-09-15T07:41:18.941Z,99210.06
2022-09-15T07:43:48.096Z,99213.13
2022-09-15T07:46:16.348Z,99214.19
2022-09-15T07:48:46.160Z,99220.69
2022-09-15T07:51:17.209Z,99221.44
2022-09-15T07:53:49.400Z,99226.75
2022-09-15T07:56:19.698Z,99229.03
2022-09-15T07:58:48.924Z,99232.00
2022-09-15T08:01:18.211Z,99226.66
2022-09-15T08:03:48.943Z,99234.59
2022-09-15T08:06:19.089Z,99238.81
2022-09-15T08:08:47.145Z,99238.25
2022-09-15T08:11:19.034Z,99240.72
2022-09-15T08:13:49.695Z,99244.00
2022-09-15T08:16:19.715Z,99243.31
2022-09-15T08:18:49.005Z,99254.03
2022-09-15T08:21:20.071Z,99260.16
2022-09-15T08:23:51.850Z,99258.94
2022-09-15T08:26:20.089Z,99264.44
2022-09-15T08:28:50.520Z,99263.91
2022-09-15T08:31:19.006Z,99267.72
2022-09-15T08:33:49.503Z,99273.53
2022-09-15T08:36:17.531Z,99268.50
2022-09-15T08:38:46.552Z,99280.13
2022-09-15T08:41:19.798Z,99281.72
2022-09-15T08:43:54.239Z,99288.75
2022-09-15T08:46:27.605Z,99287.31
2022-09-15T08:49:03.132Z,99290.00
2022-09-15T08:51:38.212Z,99285.13
2022-09-15T08:54:12.445Z,99281.44
2022-09-15T08:56:42.601Z,99285.94
2022-09-15T08:59:15.284Z,99290.81
2022-09-15T09:02:08.588Z,99281.63
2022-09-15T09:05:00.475Z,99286.59
2022-09-15T09:07:44.053Z,99290.75
2022-09-15T09:10:17.443Z,99289.94
2022-09-15T09:12:57.934Z,99287.31
2022-09-15T09:15:40.901Z,99290.16
2022-09-15T09:18:42.825Z,99291.63
2022-09-15T09:21:20.200Z,99292.28
2022-09-15T09:23:54.401Z,99291.13
2022-09-15T09:26:22.270Z,99287.50
2022-09-15T09:28:56.039Z,99293.09
2022-09-15T09:31:26.756Z,99291.28
2022-09-15T09:33:59.965Z,99294.41
2022-09-15T09:36:28.428Z,99293.06
2022-09-15T09:38:57.561Z,99298.16
2022-09-15T09:41:35.750Z,99302.06
2022-09-15T09:44:05.186Z,99301.69
2022-09-15T09:46:34.693Z,99297.91
2022-09-15T09:49:06.364Z,99303.75
2022-09-15T09:51:38.232Z,99310.63
2022-09-15T09:54:11.610Z,99307.34
2022-09-15T09:56:40.608Z,99302.66
2022-09-15T09:59:34.611Z,99307.78
2022-09-15T10:02:14.253Z,99304.03
2022-09-15T10:04:43.606Z,99307.94
2022-09-15T10:07:12.771Z,99296.38
2022-09-15T10:09:41.247Z,99306.03
2022-09-15T10:12:20.317Z,99302.03
2022-09-15T10:14:53.100Z,99301.03
2022-09-15T10:17:24.384Z,99302.75
2022-09-15T10:19:59.290Z,99304.47
2022-09-15T10:22:33.731Z,99303.63
2022-09-15T10:25:02.850Z,99287.28
2022-09-15T10:27:33.244Z,99305.06
2022-09-15T10:30:17.777Z,99303.31
2022-09-15T10:32:48.593Z,99314.91
2022-09-15T10:35:19.073Z,99308.66
2022-09-15T10:38:00.106Z,99308.38
2022-09-15T10:40:35.080Z,99309.53
2022-09-15T10:43:17.296Z,99312.47
2022-09-15T10:45:49.880Z,99318.50
2022-09-15T10:48:36.905Z,99306.31
2022-09-15T10:51:18.078Z,99307.44
2022-09-15T10:54:04.460Z,99303.63
2022-09-15T10:56:38.080Z,99310.44
2022-09-15T10:59:28.033Z,99309.59
2022-09-15T11:02:10.656Z,99311.06
2022-09-15T11:04:56.416Z,99302.69
2022-09-15T11:07:33.025Z,99316.00
2022-09-15T11:10:09.801Z,99308.88
2022-09-15T11:12:52.757Z,99317.72
2022-09-15T11:15:34.392Z,99314.75
2022-09-15T11:18:20.134Z,99315.88
2022-09-15T11:21:04.249Z,99316.50
2022-09-15T11:23:36.270Z,99302.28
2022-09-15T11:26:09.896Z,99307.44
2022-09-15T11:28:42.881Z,99309.38
2022-09-15T11:31:17.514Z,99308.66
2022-09-15T11:33:51.318Z,99315.66
2022-09-15T11:36:24.014Z,99313.09
2022-09-15T11:38:56.557Z,99309.19
2022-09-15T11:41:30.904Z,99308.69
2022-09-15T11:44:12.442Z,99316.56
2022-09-15T11:46:58.515Z,99311.59
2022-09-15T11:49:32.137Z,99322.50
2022-09-15T11:52:04.261Z,99324.38
2022-09-15T11:54:39.124Z,99317.97
2022-09-15T11:57:14.202Z,99327.53
2022-09-15T11:59:48.207Z,99316.28
2022-09-15T12:02:24.422Z,99327.22
2022-09-15T12:05:05.154Z,99327.00
2022-09-15T12:07:39.993Z,99325.28
2022-09-15T12:10:16.358Z,99328.03
2022-09-15T12:12:46.153Z,99328.94
2022-09-15T12:15:19.428Z,99328.78
2022-09-15T12:17:50.373Z,99335.78
2022-09-15T12:20:26.152Z,99326.50
2022-09-15T12:23:00.115Z,99330.13
2022-09-15T12:25:34.429Z,99329.91
2022-09-15T12:28:28.153Z,99333.72
2022-09-15T12:31:25.002Z,99327.13
2022-09-15T12:33:58.441Z,99331.75
2022-09-15T12:36:37.078Z,99335.25
2022-09-15T12:39:22.900Z,99333.69
2022-09-15T12:41:53.222Z,99332.50
2022-09-15T12:44:26.134Z,99333.09
2022-09-15T12:46:57.151Z,99342.88
2022-09-15T12:49:31.423Z,99339.34
2022-09-15T12:52:02.230Z,99342.88
2022-09-15T12:54:33.803Z,99348.41
2022-09-15T12:57:02.416Z,99345.16
2022-09-15T12:59:30.876Z,99341.09
2022-09-15T13:01:59.255Z,99343.91
2022-09-15T13:04:52.051Z,99347.31
2022-09-15T13:07:50.981Z,99335.56
2022-09-15T13:10:34.442Z,99351.59
2022-09-15T13:13:23.741Z,99349.78
2022-09-15T13:15:56.322Z,99346.94
2022-09-15T13:18:26.519Z,99358.59
2022-09-15T13:21:00.084Z,99357.59
2022-09-15T13:23:29.763Z,99363.25
2022-09-15T13:26:01.230Z,99368.66
2022-09-15T13:28:29.876Z,99356.84
2022-09-15T13:31:24.354Z,99358.88
2022-09-15T13:41:00.339Z,99360.66
2022-09-15T13:43:55.693Z,99355.47
2022-09-15T13:46:38.887Z,99360.50
2022-09-15T13:49:28.517Z,99356.47
2022-09-15T13:52:01.820Z,99360.16
2022-09-15T13:54:30.179Z,99358.75
2022-09-15T13:57:01.370Z,99350.53
2022-09-15T13:59:33.701Z,99352.97
2022-09-15T14:02:02.217Z,99352.06
2022-09-15T14:04:32.294Z,99357.84
2022-09-15T14:07:02.522Z,99358.72
2022-09-15T14:09:34.353Z,99355.84
2022-09-15T14:12:06.224Z,99358.88
2022-09-15T14:14:39.031Z,99362.59
2022-09-15T14:17:07.673Z,99356.84
2022-09-15T14:19:37.977Z,99363.50
2022-09-15T14:22:26.082Z,99363.78
2022-09-15T14:24:54.585Z,99362.34
2022-09-15T14:27:24.925Z,99359.38
2022-09-15T14:29:57.697Z,99348.06
2022-09-15T14:32:27.874Z,99346.59
2022-09-15T14:34:58.186Z,99352.28
2022-09-15T14:37:28.589Z,99339.88
2022-09-15T14:39:58.187Z,99346.78
2022-09-15T14:42:30.607Z,99339.13
2022-09-15T14:48:04.205Z,99338.75
2022-09-15T14:50:33.627Z,99337.75
2022-09-15T14:53:05.275Z,99333.09
2022-09-15T14:55:49.311Z,99339.59
2022-09-15T14:58:22.994Z,99338.59
2022-09-15T15:00:58.504Z,99336.56
2022-09-15T15:03:36.233Z,99336.38
2022-09-15T15:06:28.303Z,99338.84
2022-09-15T15:09:04.251Z,99344.56
2022-09-15T15:11:33.998Z,99335.47
2022-09-15T15:14:04.670Z,99339.09
2022-09-15T15:16:34.920Z,99339.78
2022-09-15T15:19:02.867Z,99333.56
2022-09-15T15:21:39.807Z,99344.19
2022-09-15T15:24:19.128Z,99341.59
2022-09-15T15:26:49.116Z,99336.75
2022-09-15T15:29:40.970Z,99341.41
2022-09-15T15:32:15.348Z,99341.31
2022-09-15T15:34:50.038Z,99337.28
2022-09-15T15:37:25.906Z,99340.66
2022-09-15T15:39:55.098Z,99338.78
2022-09-15T15:42:24.471Z,99348.69
2022-09-15T15:45:22.824Z,99340.03
2022-09-15T15:47:52.876Z,99346.63
2022-09-15T15:50:23.808Z,99348.56
2022-09-15T15:52:52.965Z,99353.09
2022-09-15T15:55:22.785Z,99341.38
2022-09-15T15:57:53.316Z,99348.13
2022-09-15T16:00:26.419Z,99341.97
2022-09-15T16:02:55.597Z,99348.50
2022-09-15T16:05:28.305Z,99346.88
2022-09-15T16:07:58.717Z,99349.44
2022-09-15T16:10:31.008Z,99343.91
2022-09-15T16:12:59.120Z,99348.50
2022-09-15T16:15:28.397Z,99351.13
2022-09-15T16:17:57.841Z,99348.69
2022-09-15T16:20:25.631Z,99347.09
2022-09-15T16:22:53.537Z,99346.59
2022-09-15T16:25:29.202Z,99350.19
2022-09-15T16:27:57.188Z,99341.84
2022-09-15T16:30:25.676Z,99345.16
2022-09-15T16:32:53.484Z,99347.34
2022-09-15T16:35:32.119Z,99351.31
2022-09-15T16:37:59.911Z,99353.94
2022-09-15T16:40:28.620Z,99359.34
2022-09-15T16:42:56.754Z,99367.06
2022-09-15T16:45:30.537Z,99360.69
2022-09-15T16:47:58.916Z,99362.16
2022-09-15T16:50:29.066Z,99365.28
2022-09-15T16:52:57.460Z,99364.78
2022-09-15T16:55:33.026Z,99349.44
2022-09-15T16:58:00.949Z,99356.59
2022-09-15T17:00:32.618Z,99354.47
2022-09-15T17:03:00.969Z,99355.28
2022-09-15T17:05:33.866Z,99348.38
2022-09-15T17:08:02.209Z,99359.28
2022-09-15T17:10:30.608Z,99366.03
2022-09-15T17:12:58.890Z,99362.56
2022-09-15T17:15:29.447Z,99365.66
2022-09-15T17:17:58.836Z,99368.81
2022-09-15T17:20:27.496Z,99370.91
2022-09-15T17:22:58.988Z,99361.56
2022-09-15T17:25:32.807Z,99370.91
2022-09-15T17:28:00.686Z,99363.56
2022-09-15T17:30:33.508Z,99371.25
2022-09-15T17:33:02.570Z,99371.09
2022-09-15T17:35:34.971Z,99368.97
2022-09-15T17:38:06.656Z,99367.63
2022-09-15T17:40:36.528Z,99369.63
2022-09-15T17:43:04.716Z,99363.38
2022-09-15T17:45:35.402Z,99381.13
2022-09-15T17:48:04.994Z,99378.13
2022-09-15T17:50:35.864Z,99368.06
2022-09-15T17:53:12.737Z,99368.44
2022-09-15T17:55:42.426Z,99372.97
2022-09-15T17:58:13.108Z,99368.28
2022-09-15T18:00:43.194Z,99370.06
2022-09-15T18:03:22.644Z,99375.59
2022-09-15T18:05:51.372Z,99378.31
2022-09-15T18:08:21.360Z,99379.13
2022-09-15T18:10:52.265Z,99384.75
2022-09-15T18:13:22.343Z,99388.50
2022-09-15T18:15:51.814Z,99385.03
2022-09-15T18:18:21.795Z,99388.34
2022-09-15T18:20:53.076Z,99389.13
2022-09-15T18:23:24.987Z,99390.00
2022-09-15T18:25:53.221Z,99392.75
2022-09-15T18:28:21.964Z,99393.41
2022-09-15T18:30:51.621Z,99402.44
2022-09-15T18:33:23.710Z,99402.59
2022-09-15T18:35:54.476Z,99402.41
2022-09-15T18:38:25.244Z,99407.34
2022-09-15T18:40:55.446Z,99409.59
2022-09-15T18:43:25.062Z,99412.88
2022-09-15T18:45:55.355Z,99428.38
2022-09-15T18:48:26.960Z,99425.19
2022-09-15T18:50:55.982Z,99429.84
2022-09-15T18:53:28.697Z,99433.94
2022-09-15T18:55:57.296Z,99444.44
2022-09-15T18:58:25.727Z,99440.94
2022-09-15T19:01:00.954Z,99447.53
2022-09-15T19:03:29.529Z,99450.00
2022-09-15T19:06:03.054Z,99457.72
2022-09-15T19:08:34.624Z,99448.28
2022-09-15T19:11:06.434Z,99458.91
2022-09-15T19:13:35.929Z,99451.00
2022-09-15T19:16:08.966Z,99459.00
2022-09-15T19:18:37.601Z,99459.72
2022-09-15T19:21:08.488Z,99464.28
2022-09-15T19:23:39.294Z,99460.84
2022-09-15T19:26:09.253Z,99457.03
2022-09-15T19:28:41.163Z,99458.22
2022-09-15T19:31:10.074Z,99465.03
2022-09-15T19:33:38.246Z,99460.53
2022-09-15T19:36:28.331Z,99462.31
2022-09-15T19:39:03.317Z,99465.63
2022-09-15T19:41:32.176Z,99459.56
2022-09-15T19:44:02.594Z,99461.44
2022-09-15T19:46:31.240Z,99462.50
2022-09-15T19:49:02.663Z,99465.28
2022-09-15T19:51:32.338Z,99457.34
2022-09-15T19:54:04.259Z,99461.22
2022-09-15T19:56:33.800Z,99462.66
2022-09-15T19:59:03.044Z,99461.09
2022-09-15T20:01:32.746Z,99469.13
2022-09-15T20:04:02.088Z,99459.03
2022-09-15T20:06:32.787Z,99463.09
2022-09-15T20:09:02.946Z,99471.72
2022-09-15T20:11:32.191Z,99475.03
2022-09-15T20:14:00.100Z,99474.53
2022-09-15T20:16:28.780Z,99476.25
2022-09-15T20:18:58.222Z,99471.22
2022-09-15T20:21:48.546Z,99476.63
2022-09-15T20:24:20.347Z,99471.84
2022-09-15T20:26:48.610Z,99468.38
2022-09-15T20:29:17.155Z,99481.78
2022-09-15T20:31:45.746Z,99475.34
2022-09-15T20:34:13.634Z,99475.28
2022-09-15T20:36:41.889Z,99485.38
2022-09-15T20:39:14.517Z,99486.03
2022-09-15T20:41:46.020Z,99483.03
2022-09-15T20:44:14.433Z,99486.31
2022-09-15T20:46:42.717Z,99493.72
2022-09-15T20:49:13.499Z,99492.88
2022-09-15T20:51:42.435Z,99491.56
2022-09-15T20:54:11.857Z,99496.53
2022-09-15T20:56:40.494Z,99498.22
2022-09-15T20:59:15.223Z,99501.41
2022-09-15T21:01:43.557Z,99501.19
2022-09-15T21:04:11.961Z,99499.69
2022-09-15T21:06:40.163Z,99493.91
2022-09-15T21:09:08.757Z,99498.06
2022-09-15T21:11:37.310Z,99495.91
2022-09-15T21:14:05.720Z,99491.78
2022-09-15T21:16:35.299Z,99497.41
2022-09-15T21:19:03.227Z,99497.56
2022-09-15T21:21:33.706Z,99505.53
2022-09-15T21:24:04.303Z,99504.84
2022-09-15T21:26:36.019Z,99509.81
2022-09-15T21:29:04.364Z,99503.75
2022-09-15T21:31:33.682Z,99509.81
2022-09-15T21:34:03.273Z,99511.03
2022-09-15T21:36:32.863Z,99510.63
2022-09-15T21:39:02.936Z,99516.53
2022-09-15T21:41:31.366Z,99519.56
2022-09-15T21:44:00.594Z,99523.00
2022-09-15T21:46:30.145Z,99522.59
2022-09-15T21:48:59.403Z,99516.81
2022-09-15T21:51:30.889Z,99525.09
2022-09-15T21:54:00.793Z,99523.28
2022-09-15T21:56:31.346Z,99535.28
2022-09-15T21:58:59.158Z,99531.03
2022-09-15T22:01:29.397Z,99537.91
2022-09-15T22:03:59.097Z,99532.00
2022-09-15T22:06:33.463Z,99534.06
2022-09-15T22:09:02.887Z,99531.03
2022-09-15T22:11:31.504Z,99533.09
2022-09-15T22:14:00.216Z,99531.72
2022-09-15T22:16:28.067Z,99535.47
2022-09-15T22:18:57.122Z,99542.88
2022-09-15T22:21:27.299Z,99537.38
2022-09-15T22:23:59.435Z,99530.91
2022-09-15T22:26:29.461Z,99533.94
2022-09-15T22:28:59.587Z,99530.88
2022-09-15T22:31:29.393Z,99537.78
2022-09-15T22:33:58.429Z,99537.88
2022-09-15T22:36:30.023Z,99532.91
2022-09-15T22:39:04.734Z,99532.78
2022-09-15T22:41:36.220Z,99536.34
2022-09-15T22:44:05.236Z,99530.56
2022-09-15T22:46:35.266Z,99532.94
2022-09-15T22:49:04.249Z,99537.78
2022-09-15T22:51:32.034Z,99542.97
2022-09-15T22:54:05.835Z,99548.75
2022-09-15T22:56:34.457Z,99538.78
2022-09-15T22:59:02.977Z,99546.00
2022-09-15T23:01:31.765Z,99539.97
2022-09-15T23:04:03.729Z,99546.16
2022-09-15T23:06:34.526Z,99543.66
2022-09-15T23:09:07.386Z,99543.50
2022-09-15T23:11:39.637Z,99541.31
2022-09-15T23:14:08.759Z,99543.31
2022-09-15T23:16:36.809Z,99542.00
2022-09-15T23:19:12.922Z,99537.38
2022-09-15T23:21:41.070Z,99537.16
2022-09-15T23:24:12.547Z,99543.94
2022-09-15T23:26:41.257Z,99544.28
2022-09-15T23:29:10.061Z,99547.88
2022-09-15T23:31:38.275Z,99551.09
2022-09-15T23:34:06.772Z,99538.47
2022-09-15T23:36:35.410Z,99548.69
2022-09-15T23:39:04.725Z,99546.00
2022-09-15T23:41:34.514Z,99546.59
2022-09-15T23:44:03.020Z,99548.78
2022-09-15T23:46:31.327Z,99545.69
2022-09-15T23:48:59.416Z,99548.38
2022-09-15T23:51:27.447Z,99550.31
2022-09-15T23:53:55.364Z,99546.41
2022-09-15T23:56:26.454Z,99546.41
2022-09-15T23:58:55.957Z,99549.03
